createdAt,value
2017-01-19T00:00:12.936Z,1038.8
2017-01-19T00:01:13.677Z,1038.82
2017-01-19T00:02:14.471Z,1038.81
2017-01-19T00:03:15.210Z,1038.83
2017-01-19T00:04:16.017Z,1038.8
2017-01-19T00:05:17.285Z,1038.79
2017-01-19T00:06:18.239Z,1038.75
2017-01-19T00:07:19.078Z,1038.77
2017-01-19T00:08:19.944Z,1038.74
2017-01-19T00:09:20.836Z,1038.76
2017-01-19T00:10:21.734Z,1038.75
2017-01-19T00:11:22.526Z,1038.78
2017-01-19T00:12:23.402Z,1038.74
2017-01-19T00:13:24.316Z,1038.74
2017-01-19T00:14:25.094Z,1038.69
2017-01-19T00:15:25.962Z,1038.66
2017-01-19T00:16:26.676Z,1038.63
2017-01-19T00:17:27.509Z,1038.68
2017-01-19T00:18:28.456Z,1038.65
2017-01-19T00:19:29.069Z,1038.67
2017-01-19T00:20:29.864Z,1038.63
2017-01-19T00:21:30.996Z,1038.67
2017-01-19T00:22:31.471Z,1038.7
2017-01-19T00:23:32.640Z,1038.71
2017-01-19T00:24:33.390Z,1038.69
2017-01-19T00:25:34.185Z,1038.69
2017-01-19T00:26:35.381Z,1038.71
2017-01-19T00:27:36.097Z,1038.74
2017-01-19T00:28:36.942Z,1038.77
2017-01-19T00:29:37.674Z,1038.8
2017-01-19T00:30:38.467Z,1038.75
2017-01-19T00:31:39.506Z,1038.79
2017-01-19T00:32:39.990Z,1038.77
2017-01-19T00:33:40.768Z,1038.81
2017-01-19T00:34:41.666Z,1038.78
2017-01-19T00:35:42.335Z,1038.76
2017-01-19T00:36:43.138Z,1038.72
2017-01-19T00:37:43.982Z,1038.7
2017-01-19T00:38:44.717Z,1038.68
2017-01-19T00:39:45.517Z,1038.69
2017-01-19T00:40:46.331Z,1038.69
2017-01-19T00:41:47.189Z,1038.67
2017-01-19T00:42:47.913Z,1038.76
2017-01-19T00:43:48.679Z,1038.71
2017-01-19T00:44:49.656Z,1038.78
2017-01-19T00:45:50.325Z,1038.77
2017-01-19T00:46:51.066Z,1038.76
2017-01-19T00:47:52.264Z,1038.74
2017-01-19T00:48:53.134Z,1038.72
2017-01-19T00:49:53.969Z,1038.73
2017-01-19T00:50:54.915Z,1038.71
2017-01-19T00:51:55.838Z,1038.69
2017-01-19T00:52:56.666Z,1038.67
2017-01-19T00:53:57.404Z,1038.71
2017-01-19T00:54:58.224Z,1038.67
2017-01-19T00:55:59.021Z,1038.65
2017-01-19T00:56:59.773Z,1038.66
2017-01-19T00:58:00.693Z,1038.65
2017-01-19T00:59:01.476Z,1038.62
2017-01-19T01:00:02.202Z,1038.59
2017-01-19T01:01:03.030Z,1038.61
2017-01-19T01:02:03.826Z,1038.59
2017-01-19T01:03:04.607Z,1038.6
2017-01-19T01:04:05.463Z,1038.59
2017-01-19T01:05:06.131Z,1038.58
2017-01-19T01:06:06.950Z,1038.6
2017-01-19T01:07:07.901Z,1038.59
2017-01-19T01:08:08.670Z,1038.56
2017-01-19T01:09:09.766Z,1038.53
2017-01-19T01:10:10.322Z,1038.53
2017-01-19T01:11:11.135Z,1038.52
2017-01-19T01:12:11.981Z,1038.51
2017-01-19T01:13:12.704Z,1038.53
2017-01-19T01:14:13.467Z,1038.49
2017-01-19T01:15:14.254Z,1038.48
2017-01-19T01:16:15.005Z,1038.45
2017-01-19T01:17:15.793Z,1038.48
2017-01-19T01:18:16.661Z,1038.51
2017-01-19T01:19:17.496Z,1038.5
2017-01-19T01:20:18.532Z,1038.5
2017-01-19T01:21:19.309Z,1038.51
2017-01-19T01:22:20.128Z,1038.51
2017-01-19T01:23:21.018Z,1038.48
2017-01-19T01:24:21.778Z,1038.52
2017-01-19T01:25:22.839Z,1038.5
2017-01-19T01:26:23.485Z,1038.5
2017-01-19T01:27:24.403Z,1038.51
2017-01-19T01:28:25.405Z,1038.51
2017-01-19T01:29:26.254Z,1038.52
2017-01-19T01:30:27.276Z,1038.5
2017-01-19T01:31:28.199Z,1038.53
2017-01-19T01:32:29.138Z,1038.51
2017-01-19T01:33:30.009Z,1038.5
2017-01-19T01:34:30.789Z,1038.44
2017-01-19T01:35:31.536Z,1038.49
2017-01-19T01:36:32.501Z,1038.53
2017-01-19T01:37:33.139Z,1038.54
2017-01-19T01:38:34.065Z,1038.54
2017-01-19T01:39:34.984Z,1038.58
2017-01-19T01:40:35.816Z,1038.58
2017-01-19T19:00:22.326Z,1037.3
2017-01-19T19:01:22.992Z,1037.33
2017-01-19T19:02:23.641Z,1037.3
2017-01-19T19:03:24.353Z,1037.29
2017-01-19T19:04:25.039Z,1037.31
2017-01-19T19:05:25.722Z,1037.28
2017-01-19T19:06:26.409Z,1037.24
2017-01-19T19:07:27.153Z,1037.3
2017-01-19T19:08:27.813Z,1037.26
2017-01-19T19:09:28.526Z,1037.27
2017-01-19T19:10:29.257Z,1037.25
2017-01-19T19:11:29.923Z,1037.22
2017-01-19T19:12:30.647Z,1037.23
2017-01-19T19:13:31.749Z,1037.26
2017-01-19T19:14:32.433Z,1037.27
2017-01-19T19:15:33.024Z,1037.3
2017-01-19T19:16:33.697Z,1037.29
2017-01-19T19:17:34.367Z,1037.31
2017-01-19T19:18:35.037Z,1037.32
2017-01-19T19:19:35.796Z,1037.3
2017-01-19T19:20:36.486Z,1037.3
2017-01-19T19:21:37.169Z,1037.28
2017-01-19T19:22:37.880Z,1037.27
2017-01-19T19:23:38.535Z,1037.27
2017-01-19T19:24:39.230Z,1037.25
2017-01-19T19:25:40.161Z,1037.23
2017-01-19T19:26:40.680Z,1037.23
2017-01-19T19:27:41.336Z,1037.24
2017-01-19T19:28:42.015Z,1037.22
2017-01-19T19:29:42.732Z,1037.25
2017-01-19T19:30:43.405Z,1037.23
2017-01-19T19:31:44.076Z,1037.23
2017-01-19T19:32:44.816Z,1037.22
2017-01-19T19:33:45.472Z,1037.24
2017-01-19T19:34:46.138Z,1037.23
2017-01-19T19:35:46.813Z,1037.25
2017-01-19T19:36:47.570Z,1037.26
2017-01-19T19:37:48.299Z,1037.26
2017-01-19T19:38:49.017Z,1037.22
2017-01-19T19:39:49.722Z,1037.25
2017-01-19T19:40:50.502Z,1037.24
2017-01-19T19:41:51.210Z,1037.25
2017-01-19T19:42:51.898Z,1037.26
2017-01-19T19:43:52.804Z,1037.22
2017-01-19T19:44:53.477Z,1037.2
2017-01-19T19:45:54.180Z,1037.22
2017-01-19T19:46:54.897Z,1037.24
2017-01-19T19:47:55.551Z,1037.22
2017-01-19T19:48:56.319Z,1037.22
2017-01-19T19:49:57.132Z,1037.22
2017-01-19T19:50:57.710Z,1037.23
2017-01-19T19:51:58.454Z,1037.21
2017-01-19T19:52:59.264Z,1037.23
2017-01-19T19:53:59.870Z,1037.29
2017-01-19T19:55:00.560Z,1037.32
2017-01-19T19:56:01.391Z,1037.31
2017-01-19T19:57:02.069Z,1037.29
2017-01-19T19:58:02.777Z,1037.27
2017-01-19T19:59:03.549Z,1037.32
2017-01-19T20:00:04.330Z,1037.29
2017-01-19T20:01:05.074Z,1037.3
2017-01-19T20:02:06.007Z,1037.27
2017-01-19T20:03:06.737Z,1037.31
2017-01-19T20:04:07.440Z,1037.32
2017-01-19T20:05:08.218Z,1037.35
2017-01-19T20:06:08.898Z,1037.35
2017-01-19T20:07:09.576Z,1037.31
2017-01-19T20:08:10.257Z,1037.34
2017-01-19T20:09:10.931Z,1037.32
2017-01-19T20:10:11.680Z,1037.3
2017-01-19T20:11:12.387Z,1037.31
2017-01-19T20:12:13.064Z,1037.31
2017-01-19T20:13:14.037Z,1037.38
2017-01-19T20:14:14.983Z,1037.34
2017-01-19T20:15:15.644Z,1037.35
2017-01-19T20:16:16.332Z,1037.29
2017-01-19T20:17:17.007Z,1037.3
2017-01-19T20:18:17.690Z,1037.31
2017-01-19T20:19:18.469Z,1037.3
2017-01-19T20:20:19.119Z,1037.27
2017-01-19T20:21:19.812Z,1037.29
2017-01-19T20:22:20.539Z,1037.3
2017-01-19T20:23:21.237Z,1037.29
2017-01-19T20:24:21.973Z,1037.34
2017-01-19T20:25:22.759Z,1037.32
2017-01-19T20:26:23.424Z,1037.33
2017-01-19T20:27:24.103Z,1037.32
2017-01-19T20:28:24.827Z,1037.31
2017-01-19T20:29:25.519Z,1037.27
2017-01-19T20:30:26.178Z,1037.27
2017-01-19T20:31:26.837Z,1037.28
2017-01-19T20:32:27.514Z,1037.3
2017-01-19T20:33:28.182Z,1037.28
2017-01-19T20:34:28.852Z,1037.31
2017-01-19T20:35:29.572Z,1037.28
2017-01-19T20:36:30.250Z,1037.31
2017-01-19T20:37:30.935Z,1037.28
2017-01-19T20:38:31.612Z,1037.27
2017-01-19T20:39:32.281Z,1037.25
2017-01-19T20:40:32.956Z,1037.31
2017-01-19T20:41:33.623Z,1037.27
2017-01-19T20:42:34.284Z,1037.31
2017-01-19T20:43:34.932Z,1037.28
2017-01-19T20:44:35.588Z,1037.24
2017-01-19T20:45:36.258Z,1037.26
2017-01-19T20:46:36.935Z,1037.27
2017-01-19T20:47:37.609Z,1037.27
2017-01-19T20:48:38.278Z,1037.28
2017-01-19T20:49:38.939Z,1037.27
2017-01-19T20:50:39.584Z,1037.28
2017-01-19T20:51:40.260Z,1037.25
2017-01-19T20:52:40.919Z,1037.25
2017-01-19T20:53:41.603Z,1037.26
2017-01-19T20:54:42.275Z,1037.24
2017-01-19T20:55:42.937Z,1037.29
2017-01-19T20:56:43.699Z,1037.25
2017-01-19T20:57:44.379Z,1037.25
2017-01-19T20:58:45.485Z,1037.27
2017-01-19T20:59:46.132Z,1037.26
2017-01-19T21:00:46.795Z,1037.26
2017-01-19T21:01:47.444Z,1037.27
2017-01-19T21:02:48.117Z,1037.23
2017-01-19T21:03:48.833Z,1037.21
2017-01-19T21:04:49.553Z,1037.25
2017-01-19T21:05:50.382Z,1037.25
2017-01-19T21:06:51.031Z,1037.27
2017-01-19T21:07:51.824Z,1037.29
2017-01-19T21:08:52.572Z,1037.28
2017-01-19T21:09:53.242Z,1037.3
2017-01-19T21:10:53.907Z,1037.3
2017-01-19T21:11:54.770Z,1037.28
2017-01-19T21:12:55.572Z,1037.28
2017-01-19T21:13:56.304Z,1037.3
2017-01-19T21:14:56.986Z,1037.28
2017-01-19T21:15:57.648Z,1037.29
2017-01-19T21:16:58.319Z,1037.27
2017-01-19T21:17:58.982Z,1037.28
2017-01-19T21:18:59.632Z,1037.29
2017-01-19T21:20:00.330Z,1037.31
2017-01-19T21:21:01.017Z,1037.3
2017-01-19T21:22:01.691Z,1037.28
2017-01-19T21:23:02.352Z,1037.23
2017-01-19T21:24:03.088Z,1037.27
2017-01-19T21:25:03.827Z,1037.25
2017-01-19T21:26:04.519Z,1037.28
2017-01-19T21:27:05.229Z,1037.21
2017-01-19T21:28:05.978Z,1037.27
2017-01-19T21:29:06.691Z,1037.24
2017-01-19T21:30:07.379Z,1037.3
2017-01-19T21:31:08.156Z,1037.28
2017-01-19T21:32:08.784Z,1037.29
2017-01-19T21:33:09.555Z,1037.3
2017-01-19T21:34:10.304Z,1037.33
2017-01-19T21:35:11.035Z,1037.33
2017-01-19T21:36:11.872Z,1037.31
2017-01-19T21:37:12.466Z,1037.3
2017-01-19T21:38:13.137Z,1037.33
2017-01-19T21:39:14.074Z,1037.28
2017-01-19T21:40:14.910Z,1037.27
2017-01-19T21:41:15.610Z,1037.3
2017-01-19T21:42:16.328Z,1037.26
2017-01-19T21:43:17.035Z,1037.28
2017-01-19T21:44:17.990Z,1037.28
2017-01-19T21:45:18.697Z,1037.24
2017-01-19T21:46:19.569Z,1037.24
2017-01-19T21:47:20.258Z,1037.24
2017-01-19T21:48:21.079Z,1037.21
2017-01-19T21:49:21.870Z,1037.23
2017-01-19T21:50:22.514Z,1037.2
2017-01-19T21:51:23.247Z,1037.18
2017-01-19T21:52:24.183Z,1037.2
2017-01-19T21:53:24.874Z,1037.17
2017-01-19T21:54:25.733Z,1037.16
2017-01-19T21:55:26.595Z,1037.16
2017-01-19T21:56:27.441Z,1037.14
2017-01-19T21:57:28.402Z,1037.13
2017-01-19T21:58:28.962Z,1037.15
2017-01-19T21:59:29.630Z,1037.12
2017-01-19T22:00:30.332Z,1037.13
2017-01-19T22:01:31.043Z,1037.15
2017-01-19T22:02:31.715Z,1037.12
2017-01-19T22:03:32.388Z,1037.08
2017-01-19T22:04:33.187Z,1037.13
2017-01-19T22:05:34.167Z,1037.11
2017-01-19T22:06:34.861Z,1037.14
2017-01-19T22:07:35.575Z,1037.14
2017-01-19T22:08:36.236Z,1037.14
2017-01-19T22:09:36.904Z,1037.13
2017-01-19T22:10:38.022Z,1037.1
2017-01-19T22:11:39.075Z,1037.13
2017-01-19T22:12:39.522Z,1037.11
2017-01-19T22:13:40.330Z,1037.11
2017-01-19T22:14:41.150Z,1037.13
2017-01-19T22:15:41.839Z,1037.1
2017-01-19T22:16:42.783Z,1037.06
2017-01-19T22:17:43.583Z,1037.07
2017-01-19T22:18:44.218Z,1037.11
2017-01-19T22:19:45.058Z,1037.1
2017-01-19T22:20:45.901Z,1037.11
2017-01-19T22:21:46.586Z,1037.15
2017-01-19T22:22:47.251Z,1037.14
2017-01-19T22:23:48.052Z,1037.14
2017-01-19T22:24:48.675Z,1037.12
2017-01-19T22:25:49.429Z,1037.11
2017-01-19T22:26:50.233Z,1037.06
2017-01-19T22:27:50.956Z,1037.11
2017-01-19T22:28:51.867Z,1037.06
2017-01-19T22:29:52.733Z,1037.11
2017-01-19T22:30:53.285Z,1037.05
2017-01-19T22:31:54.047Z,1037.07
2017-01-19T22:32:54.813Z,1037.11
2017-01-19T22:33:55.505Z,1037.08
2017-01-19T22:34:56.171Z,1037.09
2017-01-19T22:35:56.851Z,1037.12
2017-01-19T22:36:57.532Z,1037.08
2017-01-19T22:37:58.239Z,1037.08
2017-01-19T22:38:58.933Z,1037.1
2017-01-19T22:39:59.835Z,1037.04
2017-01-19T22:41:00.750Z,1037.01
2017-01-19T22:42:01.387Z,1037.03
2017-01-19T22:43:02.207Z,1037.01
2017-01-19T22:44:02.904Z,1037.01
2017-01-19T22:45:03.766Z,1037
2017-01-19T22:46:04.516Z,1036.99
2017-01-19T22:47:05.207Z,1037.03
2017-01-19T22:48:06.598Z,1036.98
2017-01-19T22:49:06.949Z,1036.98
2017-01-19T22:50:07.642Z,1037.01
2017-01-19T22:51:08.442Z,1037.06
2017-01-19T22:52:09.345Z,1037
2017-01-19T22:53:10.051Z,1037.05
2017-01-19T22:54:10.810Z,1037.05
2017-01-19T22:55:11.528Z,1037.03
2017-01-19T22:56:12.208Z,1037.07
2017-01-19T22:57:13.080Z,1037.07
2017-01-19T22:58:13.755Z,1037.03
2017-01-19T22:59:14.403Z,1037.03
2017-01-19T23:00:15.981Z,1037.06
2017-01-19T23:01:16.681Z,1036.98
2017-01-19T23:02:17.481Z,1037.04
2017-01-19T23:03:18.160Z,1037.04
2017-01-19T23:04:18.837Z,1037.01
2017-01-19T23:05:19.835Z,1037
2017-01-19T23:06:20.443Z,1037.01
2017-01-19T23:07:21.147Z,1036.97
2017-01-19T23:08:21.848Z,1037
2017-01-19T23:09:22.515Z,1036.99
2017-01-19T23:10:24.164Z,1036.95
2017-01-19T23:11:24.354Z,1036.92
2017-01-19T23:12:25.264Z,1036.96
2017-01-19T23:13:25.938Z,1036.94
2017-01-19T23:14:26.704Z,1036.96
2017-01-19T23:15:27.543Z,1036.95
2017-01-19T23:16:28.279Z,1036.97
2017-01-19T23:17:29.181Z,1036.96
2017-01-19T23:18:29.821Z,1036.94
2017-01-19T23:19:30.498Z,1036.88
2017-01-19T23:20:31.184Z,1036.91
2017-01-19T23:21:31.945Z,1036.89
2017-01-19T23:22:32.652Z,1036.86
2017-01-19T23:23:33.540Z,1036.87
2017-01-19T23:24:34.390Z,1036.9
2017-01-19T23:25:35.082Z,1036.87
2017-01-19T23:26:36.061Z,1036.88
2017-01-19T23:27:36.765Z,1036.9
2017-01-19T23:28:37.435Z,1036.84
2017-01-19T23:29:38.117Z,1036.85
2017-01-19T23:30:38.806Z,1036.83
2017-01-19T23:31:39.774Z,1036.81
2017-01-19T23:32:40.336Z,1036.8
2017-01-19T23:33:41.058Z,1036.81
2017-01-19T23:34:42.122Z,1036.81
2017-01-19T23:35:42.815Z,1036.78
2017-01-19T23:36:43.553Z,1036.78
2017-01-19T23:37:44.355Z,1036.82
2017-01-19T23:38:45.059Z,1036.85
2017-01-19T23:39:45.721Z,1036.85
2017-01-19T23:40:46.491Z,1036.81
2017-01-19T23:41:47.171Z,1036.84
2017-01-19T23:42:47.849Z,1036.75
2017-01-19T23:43:48.519Z,1036.8
2017-01-19T23:44:49.264Z,1036.75
2017-01-19T23:45:50.151Z,1036.72
2017-01-19T23:46:51.005Z,1036.73
2017-01-19T23:47:51.746Z,1036.74
2017-01-19T23:48:52.431Z,1036.76
2017-01-19T23:49:53.096Z,1036.79
2017-01-19T23:50:53.759Z,1036.77
2017-01-19T23:51:54.407Z,1036.76
2017-01-19T23:52:55.355Z,1036.75
2017-01-19T23:53:56.065Z,1036.75
2017-01-19T23:54:56.723Z,1036.77
2017-01-19T23:55:57.484Z,1036.8
2017-01-19T23:56:58.353Z,1036.8
2017-01-19T23:57:59.036Z,1036.77
2017-01-19T23:58:59.848Z,1036.78
